createdAt,value
2018-09-19T00:03:33.452Z,15.7
2018-09-19T00:08:35.780Z,15.6
2018-09-19T00:13:38.103Z,15.5
2018-09-19T00:18:40.297Z,15.5
2018-09-19T00:23:42.706Z,15.4
2018-09-19T00:28:45.042Z,15.3
2018-09-19T00:33:47.403Z,15.2
2018-09-19T00:38:49.503Z,15.2
2018-09-19T00:43:51.936Z,15.3
2018-09-19T00:48:54.041Z,15.4
2018-09-19T00:53:56.442Z,15.4
2018-09-19T00:58:58.608Z,15.4
2018-09-19T01:04:01.117Z,15.3
2018-09-19T01:09:03.387Z,15.4
2018-09-19T01:14:05.688Z,15.4
2018-09-19T01:19:07.938Z,15.3
2018-09-19T01:24:10.216Z,15.3
2018-09-19T01:29:12.469Z,15.3
2018-09-19T01:34:14.786Z,15.2
2018-09-19T01:39:17.136Z,15.2
2018-09-19T01:44:19.319Z,15.1
2018-09-19T01:49:21.638Z,15.1
2018-09-19T01:54:23.886Z,14.9
2018-09-19T01:59:26.615Z,14.8
2018-09-19T02:04:28.559Z,14.6
2018-09-19T02:09:30.823Z,14.4
2018-09-19T02:14:33.078Z,14.3
2018-09-19T02:19:35.438Z,14.1
2018-09-19T02:24:37.714Z,13.9
2018-09-19T02:29:39.931Z,13.9
2018-09-19T02:34:42.279Z,14
2018-09-19T02:39:44.562Z,14
2018-09-19T02:49:49.164Z,14.1
2018-09-19T02:54:51.537Z,14.3
2018-09-19T02:59:53.805Z,14.5
2018-09-19T03:04:55.967Z,14.6
2018-09-19T03:09:58.385Z,14.7
2018-09-19T03:15:00.627Z,14.9
2018-09-19T03:20:03.195Z,15
2018-09-19T03:25:05.225Z,15.1
2018-09-19T03:30:07.585Z,15.1
2018-09-19T03:35:09.820Z,15.1
2018-09-19T03:40:12.241Z,15.2
2018-09-19T03:45:14.432Z,15.2
2018-09-19T03:50:16.795Z,15.2
2018-09-19T03:55:18.998Z,15.2
2018-09-19T04:00:21.252Z,15.2
2018-09-19T04:05:23.647Z,15.3
2018-09-19T04:10:26.106Z,15.3
2018-09-19T04:15:28.089Z,15.3
2018-09-19T04:20:30.467Z,15.4
2018-09-19T04:25:32.777Z,15.3
2018-09-19T04:30:35.158Z,15.3
2018-09-19T04:35:37.483Z,15.4
2018-09-19T04:40:39.668Z,15.5
2018-09-19T04:45:42.126Z,15.5
2018-09-19T04:50:44.201Z,15.5
2018-09-19T04:55:46.576Z,15.5
2018-09-19T05:00:48.868Z,15.5
2018-09-19T05:05:51.242Z,15.4
2018-09-19T05:10:53.433Z,15.4
2018-09-19T05:15:55.679Z,15.4
2018-09-19T05:20:58.022Z,15.4
2018-09-19T05:26:00.376Z,15.5
2018-09-19T05:31:02.710Z,15.4
2018-09-19T05:36:04.965Z,15.5
2018-09-19T05:41:07.108Z,15.5
2018-09-19T05:46:09.498Z,15.5
2018-09-19T05:51:11.961Z,15.6
2018-09-19T05:56:14.077Z,15.7
2018-09-19T06:01:16.333Z,15.8
2018-09-19T06:06:18.655Z,16
2018-09-19T06:11:20.880Z,16.1
2018-09-19T06:16:23.496Z,16.200001
2018-09-19T06:21:25.542Z,16.4
2018-09-19T06:36:32.619Z,16.700001
2018-09-19T06:41:34.719Z,16.799999
2018-09-19T06:46:37.040Z,16.9
2018-09-19T06:51:39.216Z,17
2018-09-19T06:56:41.575Z,17.1
2018-09-19T07:01:43.796Z,17.1
2018-09-19T07:06:46.495Z,17.299999
2018-09-19T07:11:48.465Z,17.700001
2018-09-19T07:16:50.689Z,18
2018-09-19T07:21:53.042Z,18.200001
2018-09-19T07:26:55.661Z,18.5
2018-09-19T07:31:57.651Z,18.700001
2018-09-19T07:36:59.879Z,19
2018-09-19T07:42:02.218Z,19
2018-09-19T07:47:04.558Z,19
2018-09-19T07:52:06.742Z,19
2018-09-19T07:57:09.170Z,19
2018-09-19T08:02:11.494Z,19
2018-09-19T08:07:13.719Z,19.200001
2018-09-19T08:12:16.015Z,19.200001
2018-09-19T08:17:18.352Z,19.299999
2018-09-19T08:22:20.605Z,19.5
2018-09-19T08:27:22.808Z,19.700001
2018-09-19T08:32:25.112Z,19.9
2018-09-19T08:37:27.453Z,20.1
2018-09-19T08:47:32.171Z,20.200001
2018-09-19T08:52:34.351Z,20.4
2018-09-19T08:57:36.746Z,20.700001
2018-09-19T09:02:39.104Z,20.799999
2018-09-19T09:07:41.176Z,20.9
2018-09-19T09:12:43.537Z,21.1
2018-09-19T09:17:45.984Z,21.1
2018-09-19T09:22:48.141Z,21.1
2018-09-19T09:27:50.454Z,21.4
2018-09-19T09:32:52.804Z,21.799999
2018-09-19T09:37:55.006Z,22
2018-09-19T09:42:57.286Z,22.4
2018-09-19T09:47:59.683Z,22.1
2018-09-19T09:53:01.792Z,21.9
2018-09-19T09:58:04.567Z,21.9
2018-09-19T10:03:06.472Z,22.1
2018-09-19T10:08:08.716Z,22.200001
2018-09-19T10:13:11.097Z,22.299999
2018-09-19T10:18:13.303Z,23
2018-09-19T10:23:15.565Z,23.6
2018-09-19T10:28:17.950Z,23.9
2018-09-19T10:33:20.281Z,23.4
2018-09-19T10:38:22.487Z,23.6
2018-09-19T10:43:24.789Z,24
2018-09-19T10:48:27.156Z,24.4
2018-09-19T10:53:29.385Z,24.700001
2018-09-19T10:58:31.726Z,24.799999
2018-09-19T11:03:34.022Z,25
2018-09-19T11:08:36.398Z,24.9
2018-09-19T11:13:38.625Z,25.200001
2018-09-19T11:18:40.880Z,25.200001
2018-09-19T11:23:43.090Z,25.299999
2018-09-19T11:28:45.408Z,25.9
2018-09-19T11:33:47.782Z,26.5
2018-09-19T11:38:51.057Z,26.700001
2018-09-19T11:43:52.419Z,26.6
2018-09-19T11:48:54.695Z,26.9
2018-09-19T11:53:56.939Z,27.299999
2018-09-19T11:58:59.215Z,27.700001
2018-09-19T12:04:01.538Z,27.799999
2018-09-19T12:09:03.856Z,28.200001
2018-09-19T12:14:06.175Z,28.299999
2018-09-19T12:19:08.369Z,28.4
2018-09-19T12:24:10.972Z,28.6
2018-09-19T12:29:12.936Z,28.4
2018-09-19T12:34:15.296Z,28.5
2018-09-19T12:39:17.606Z,28.6
2018-09-19T12:44:19.846Z,28.4
2018-09-19T12:49:22.290Z,28.299999
2018-09-19T12:54:24.575Z,28.5
2018-09-19T12:59:26.744Z,28.4
2018-09-19T13:04:29.029Z,28.4
2018-09-19T13:09:31.320Z,28
2018-09-19T13:14:33.686Z,28.5
2018-09-19T13:19:35.919Z,28.5
2018-09-19T13:24:38.509Z,28.799999
2018-09-19T13:29:40.691Z,28.299999
2018-09-19T13:34:42.778Z,28.4
2018-09-19T13:39:45.129Z,28.1
2018-09-19T13:44:47.462Z,27.700001
2018-09-19T13:49:49.642Z,27.9
2018-09-19T13:54:52.181Z,27.700001
2018-09-19T13:59:54.469Z,27.700001
2018-09-19T14:04:56.566Z,27.6
2018-09-19T14:09:58.908Z,27.700001
2018-09-19T14:15:01.300Z,27.4
2018-09-19T14:20:03.443Z,27.5
2018-09-19T14:25:05.810Z,27.299999
2018-09-19T14:30:08.013Z,27
2018-09-19T14:35:10.358Z,26.700001
2018-09-19T14:40:12.785Z,26.299999
2018-09-19T14:45:14.915Z,26.299999
2018-09-19T14:50:17.247Z,26.299999
2018-09-19T14:55:19.656Z,26.200001
2018-09-19T15:00:21.869Z,25.9
2018-09-19T15:05:24.176Z,25.700001
2018-09-19T15:10:27.370Z,25.299999
2018-09-19T15:15:28.797Z,25.299999
2018-09-19T15:20:31.285Z,25.4
2018-09-19T15:25:33.402Z,25.200001
2018-09-19T15:30:35.608Z,24.799999
2018-09-19T15:40:40.196Z,24.4
2018-09-19T15:45:42.478Z,24.4
2018-09-19T15:50:44.967Z,24.299999
2018-09-19T15:55:47.037Z,24.200001
2018-09-19T16:00:49.338Z,24.1
2018-09-19T16:05:52.042Z,24
2018-09-19T16:10:54.007Z,24.4
2018-09-19T16:15:56.236Z,24.799999
2018-09-19T16:20:58.766Z,25.1
2018-09-19T16:26:01.016Z,24.799999
2018-09-19T16:31:03.202Z,24.1
2018-09-19T16:36:05.389Z,23.799999
2018-09-19T16:41:07.815Z,23.5
2018-09-19T16:46:09.967Z,23.299999
2018-09-19T16:51:12.391Z,23
2018-09-19T16:56:14.738Z,22.799999
2018-09-19T17:01:16.927Z,22.700001
2018-09-19T17:06:19.234Z,22.6
2018-09-19T17:11:21.616Z,22.5
2018-09-19T17:16:23.963Z,22.4
2018-09-19T17:21:26.130Z,22.299999
2018-09-19T17:26:28.409Z,22.200001
2018-09-19T17:31:30.637Z,22.1
2018-09-19T17:36:32.984Z,22.1
2018-09-19T17:41:35.294Z,22.1
2018-09-19T17:46:37.489Z,22
2018-09-19T17:51:39.866Z,21.9
2018-09-19T17:56:42.216Z,21.799999
2018-09-19T18:01:44.395Z,21.700001
2018-09-19T18:06:46.846Z,21.700001
2018-09-19T18:11:49.048Z,21.5
2018-09-19T18:16:51.368Z,21.4
2018-09-19T18:21:53.639Z,21.299999
2018-09-19T18:26:55.818Z,21.299999
2018-09-19T18:31:58.292Z,21.1
2018-09-19T18:37:00.553Z,21
2018-09-19T18:42:02.780Z,20.9
2018-09-19T18:47:05.134Z,20.799999
2018-09-19T18:52:07.336Z,20.700001
2018-09-19T18:57:09.724Z,20.6
2018-09-19T19:02:12.116Z,20.5
2018-09-19T19:07:14.196Z,20.5
2018-09-19T19:12:16.599Z,20.4
2018-09-19T19:17:19.104Z,20.4
2018-09-19T19:22:21.228Z,20.299999
2018-09-19T19:27:23.435Z,20.200001
2018-09-19T19:32:25.756Z,20.200001
2018-09-19T19:37:28.055Z,20.1
2018-09-19T19:42:30.368Z,20.1
2018-09-19T19:47:32.668Z,20.1
2018-09-19T19:52:35.181Z,20.1
2018-09-19T19:57:37.214Z,20.1
2018-09-19T20:02:39.685Z,20.1
2018-09-19T20:07:41.972Z,20.1
2018-09-19T20:12:44.181Z,20
2018-09-19T20:17:46.518Z,20
2018-09-19T20:22:48.844Z,19.9
2018-09-19T20:27:50.969Z,19.799999
2018-09-19T20:32:53.279Z,19.799999
2018-09-19T20:37:55.617Z,19.700001
2018-09-19T20:42:57.902Z,19.700001
2018-09-19T20:48:00.143Z,19.6
2018-09-19T20:53:02.691Z,19.5
2018-09-19T20:58:04.734Z,19.5
2018-09-19T21:03:06.987Z,19.4
2018-09-19T21:08:09.332Z,19.4
2018-09-19T21:13:11.757Z,19.299999
2018-09-19T21:18:13.909Z,19.200001
2018-09-19T21:23:16.146Z,19.200001
2018-09-19T21:28:18.548Z,19.1
2018-09-19T21:33:20.797Z,19
2018-09-19T21:38:23.109Z,18.9
2018-09-19T21:43:25.434Z,18.9
2018-09-19T21:48:27.707Z,18.9
2018-09-19T21:53:30.008Z,18.799999
2018-09-19T21:58:32.281Z,18.799999
2018-09-19T22:03:34.573Z,18.700001
2018-09-19T22:08:36.821Z,18.700001
2018-09-19T22:13:39.210Z,18.6
2018-09-19T22:18:41.451Z,18.5
2018-09-19T22:23:43.741Z,18.5
2018-09-19T22:28:46.008Z,18.4
2018-09-19T22:33:48.275Z,18.4
2018-09-19T22:38:50.663Z,18.299999
2018-09-19T22:43:52.891Z,18.1
2018-09-19T22:48:55.194Z,18
2018-09-19T22:53:57.531Z,17.9
2018-09-19T22:58:59.873Z,17.799999
2018-09-19T23:04:02.303Z,17.799999
2018-09-19T23:09:04.457Z,17.700001
2018-09-19T23:14:06.703Z,17.6
2018-09-19T23:19:08.987Z,17.5
2018-09-19T23:24:11.314Z,17.200001
2018-09-19T23:29:13.544Z,16.9
2018-09-19T23:34:15.925Z,16.700001
2018-09-19T23:39:18.192Z,16.5
2018-09-19T23:44:20.503Z,16.4
2018-09-19T23:49:22.799Z,16.200001
2018-09-19T23:54:24.978Z,16
2018-09-19T23:59:27.368Z,15.8
